createdAt,value
2023-03-22T00:04:55.317Z,0
2023-03-22T00:11:18.364Z,0
2023-03-22T00:17:38.439Z,0
2023-03-22T00:24:01.427Z,0
2023-03-22T00:30:21.411Z,0
2023-03-22T00:36:44.454Z,0
2023-03-22T00:43:04.342Z,0
2023-03-22T00:49:27.476Z,0
2023-03-22T00:55:47.504Z,0
2023-03-22T01:02:10.379Z,0
2023-03-22T01:08:30.472Z,0
2023-03-22T01:14:53.429Z,0
2023-03-22T01:21:13.523Z,0
2023-03-22T01:27:36.369Z,0
2023-03-22T01:33:56.445Z,0
2023-03-22T01:40:19.373Z,0
2023-03-22T01:46:39.526Z,0
2023-03-22T01:53:02.453Z,0
2023-03-22T01:59:22.465Z,0
2023-03-22T02:05:45.391Z,0
2023-03-22T02:12:05.477Z,0
2023-03-22T02:18:28.437Z,0
2023-03-22T02:24:48.402Z,0
2023-03-22T02:31:11.490Z,0
2023-03-22T02:37:31.564Z,0
2023-03-22T02:43:54.366Z,0
2023-03-22T02:50:14.461Z,0
2023-03-22T02:56:37.427Z,0
2023-03-22T03:02:57.535Z,0
2023-03-22T03:09:20.414Z,0
2023-03-22T03:15:40.474Z,0
2023-03-22T03:22:03.409Z,0
2023-03-22T03:28:23.442Z,0
2023-03-22T03:34:46.363Z,0
2023-03-22T03:41:06.433Z,0
2023-03-22T03:47:29.404Z,0
2023-03-22T03:53:49.416Z,0
2023-03-22T04:00:12.376Z,0
2023-03-22T04:06:32.523Z,0
2023-03-22T04:12:55.356Z,0
2023-03-22T04:29:20.292Z,0
2023-03-22T04:35:40.340Z,0
2023-03-22T04:42:03.402Z,0
2023-03-22T04:48:23.480Z,0
2023-03-22T04:54:46.431Z,0
2023-03-22T05:01:06.337Z,0
2023-03-22T05:07:29.447Z,1
2023-03-22T05:13:49.405Z,4
2023-03-22T05:20:12.387Z,12
2023-03-22T05:26:32.456Z,27
2023-03-22T05:32:55.429Z,56
2023-03-22T05:39:15.346Z,108
2023-03-22T05:45:38.459Z,205
2023-03-22T05:51:58.417Z,311
2023-03-22T05:58:21.452Z,404
2023-03-22T06:04:41.419Z,345
2023-03-22T06:11:04.453Z,512
2023-03-22T06:17:24.471Z,707
2023-03-22T06:23:47.413Z,916
2023-03-22T06:30:07.395Z,986
2023-03-22T06:36:30.350Z,1024
2023-03-22T06:42:50.502Z,933
2023-03-22T06:49:13.368Z,949
2023-03-22T06:55:33.355Z,1039
2023-03-22T07:01:56.406Z,1423
2023-03-22T07:08:16.412Z,1305
2023-03-22T07:14:39.348Z,1602
2023-03-22T07:20:59.428Z,1510
2023-03-22T07:27:22.365Z,1980
2023-03-22T07:33:42.388Z,2201
2023-03-22T07:40:05.468Z,2376
2023-03-22T07:46:25.350Z,1688
2023-03-22T07:52:48.375Z,2246
2023-03-22T07:59:08.580Z,2374
2023-03-22T08:05:31.445Z,2207
2023-03-22T08:11:51.365Z,1572
2023-03-22T08:18:14.402Z,1471
2023-03-22T08:24:34.847Z,1663
2023-03-22T08:30:57.349Z,2338
2023-03-22T08:37:17.501Z,2805
2023-03-22T08:43:40.354Z,2937
2023-03-22T08:50:00.381Z,2293
2023-03-22T08:56:23.432Z,2368
2023-03-22T09:02:43.382Z,2905
2023-03-22T09:09:06.347Z,3941
2023-03-22T09:15:26.427Z,3315
2023-03-22T09:21:49.333Z,4315
2023-03-22T09:28:09.382Z,3320
2023-03-22T09:34:32.376Z,2879
2023-03-22T09:58:13.895Z,3510
2023-03-22T10:04:33.370Z,3500
2023-03-22T10:10:56.426Z,4316
2023-03-22T10:17:16.424Z,3428
2023-03-22T10:23:39.358Z,3590
2023-03-22T10:29:59.382Z,4477
2023-03-22T10:36:22.368Z,3774
2023-03-22T10:42:42.407Z,4139
2023-03-22T10:49:05.349Z,4307
2023-03-22T10:55:25.409Z,3832
2023-03-22T11:01:48.641Z,4960
2023-03-22T11:08:08.355Z,5972
2023-03-22T11:14:31.439Z,5005
2023-03-22T11:20:51.399Z,4775
2023-03-22T11:27:14.332Z,4845
2023-03-22T11:33:34.423Z,4686
2023-03-22T11:39:57.346Z,4716
2023-03-22T11:46:17.441Z,4411
2023-03-22T11:52:40.396Z,3489
2023-03-22T11:59:00.330Z,3764
2023-03-22T12:05:23.463Z,3364
2023-03-22T12:11:43.367Z,3732
2023-03-22T12:18:07.938Z,3619
2023-03-22T12:24:26.336Z,2919
2023-03-22T12:30:49.692Z,2657
2023-03-22T12:37:09.347Z,2463
2023-03-22T12:43:32.352Z,2122
2023-03-22T12:49:52.365Z,2257
2023-03-22T12:56:15.321Z,2164
2023-03-22T13:02:35.499Z,2103
2023-03-22T13:08:58.375Z,1574
2023-03-22T13:15:19.543Z,1607
2023-03-22T13:21:42.418Z,1552
2023-03-22T13:28:02.366Z,1452
2023-03-22T13:34:25.452Z,1728
2023-03-22T13:40:45.346Z,2290
2023-03-22T13:47:08.396Z,2250
2023-03-22T13:53:28.350Z,1947
2023-03-22T13:59:54.473Z,1506
2023-03-22T14:06:11.498Z,1637
2023-03-22T14:12:34.412Z,2024
2023-03-22T14:18:54.451Z,1796
2023-03-22T14:49:39.360Z,1044
2023-03-22T14:55:59.360Z,1374
2023-03-22T15:02:22.352Z,1566
2023-03-22T15:08:42.408Z,1392
2023-03-22T15:15:05.391Z,1491
2023-03-22T15:37:53.317Z,932
2023-03-22T15:44:13.368Z,837
2023-03-22T15:50:36.551Z,739
2023-03-22T15:56:56.351Z,737
2023-03-22T16:03:19.384Z,636
2023-03-22T16:09:39.358Z,621
2023-03-22T16:16:02.478Z,448
2023-03-22T16:22:22.349Z,462
2023-03-22T16:28:45.416Z,320
2023-03-22T16:35:05.423Z,340
2023-03-22T16:41:28.347Z,381
2023-03-22T16:47:48.354Z,345
2023-03-22T16:54:11.414Z,365
2023-03-22T17:00:31.363Z,357
2023-03-22T17:06:54.362Z,253
2023-03-22T17:13:14.347Z,183
2023-03-22T17:19:37.380Z,153
2023-03-22T17:25:57.343Z,103
2023-03-22T17:32:33.765Z,64
2023-03-22T17:38:45.722Z,40
2023-03-22T17:45:03.824Z,22
2023-03-22T17:51:23.401Z,14
2023-03-22T18:04:07.375Z,2
2023-03-22T18:10:30.385Z,1
2023-03-22T18:16:52.562Z,0
2023-03-22T18:23:13.504Z,0
2023-03-22T18:29:33.365Z,0
2023-03-22T18:35:56.378Z,0
2023-03-22T18:48:39.375Z,0
2023-03-22T18:55:07.531Z,0
2023-03-22T19:01:22.368Z,0
2023-03-22T19:07:52.567Z,0
2023-03-22T19:14:53.206Z,0
2023-03-22T19:20:25.342Z,0
2023-03-22T19:26:58.594Z,0
2023-03-22T19:33:27.484Z,0
2023-03-22T19:39:31.550Z,0
2023-03-22T19:45:51.386Z,0
2023-03-22T19:52:14.367Z,0
2023-03-22T19:58:34.338Z,0
2023-03-22T20:04:58.678Z,0
2023-03-22T20:11:27.720Z,0
2023-03-22T20:17:40.323Z,0
2023-03-22T20:24:00.665Z,0
2023-03-22T20:30:23.379Z,0
2023-03-22T20:36:43.453Z,0
2023-03-22T20:59:14.386Z,0
2023-03-22T21:05:37.312Z,0
2023-03-22T21:11:57.500Z,0
2023-03-22T21:18:20.379Z,0
2023-03-22T21:24:40.599Z,0
2023-03-22T21:31:03.363Z,0
2023-03-22T21:37:23.357Z,0
2023-03-22T21:43:46.441Z,0
2023-03-22T21:50:06.402Z,0
2023-03-22T21:56:29.422Z,0
2023-03-22T22:02:49.348Z,0
2023-03-22T22:09:12.336Z,0
2023-03-22T22:15:32.387Z,0
2023-03-22T22:21:55.340Z,0
2023-03-22T22:28:15.418Z,0
2023-03-22T22:34:38.405Z,0
2023-03-22T22:40:58.359Z,0
2023-03-22T22:47:21.425Z,0
2023-03-22T22:53:41.416Z,0
2023-03-22T23:00:04.440Z,0
2023-03-22T23:23:02.342Z,0
2023-03-22T23:29:22.345Z,0
2023-03-22T23:35:45.436Z,0
2023-03-22T23:42:06.853Z,0
2023-03-22T23:48:28.328Z,0
2023-03-22T23:54:48.376Z,0
